Holsworthy, United Kingdom
Current Conditions -  °F | °C
As of 2:20 PM on Thursday 27 Nov 2014 (Local Time) from EGHQ Reporting Station
Few Clouds Few Clouds  
Wind Chill: 10°   Ceiling: Unl
Heat Index: 10°   Visibility: 6mi
Dew Point:   Wind: 13mph
Humidity: 82%   Direction: 130°SE
Pressure: 29.41"   Gusts: NA
Location:  50.81°N, 4.35°W
Report Text: EGHQ 271420Z 13011KT 9999 FEW018 10/07 Q0996
Loading
Personal Weather Stations






























Interactive Weather Map New forecast layout! Learn more

10-Day Weather Forecast

Advertisements
Track Severe Weather on mobile